Time;durP1;ratioP1;P1;durP2;ratioP2;P2;SDS_P1;SDS_P2;PMS_P1;PMS_P2;Temp;Humidity;BMP_temperature;BMP_pressure;BME280_temperature;BME280_humidity;BME280_pressure;Samples;Min_cycle;Max_cycle;Signal;HPM_P1;HPM_P2
2022/09/19 00:01:41;;;;;;;9.65;4.65;;;;;;;;;;5095308;28;20399;-75
2022/09/19 00:04:45;;;;;;;8.93;4.47;;;;;;;;;;5095492;28;20365;-75
2022/09/19 00:07:49;;;;;;;10.88;4.00;;;;;;;;;;5095399;28;20036;-75
2022/09/19 00:10:54;;;;;;;8.77;4.00;;;;;;;;;;5095010;28;20040;-74
2022/09/19 00:13:59;;;;;;;13.55;4.32;;;;;;;;;;5094953;28;20567;-75
2022/09/19 00:17:06;;;;;;;11.07;4.10;;;;;;;;;;5095491;28;20044;-74
2022/09/19 00:20:11;;;;;;;10.82;5.15;;;;;;;;;;5094665;28;20043;-75
2022/09/19 00:26:39;;;;;;;17.33;7.45;;;;;;;;;;5094917;28;20044;-74
2022/09/19 00:29:43;;;;;;;12.77;6.53;;;;;;;;;;5094814;28;20499;-75
2022/09/19 00:32:51;;;;;;;12.93;6.70;;;;;;;;;;5094600;28;20047;-75
2022/09/19 00:35:55;;;;;;;11.75;5.35;;;;;;;;;;5094483;28;20048;-74
2022/09/19 00:39:00;;;;;;;11.57;5.28;;;;;;;;;;5094722;28;20050;-75
2022/09/19 00:42:04;;;;;;;12.85;5.38;;;;;;;;;;5094872;28;20045;-74
2022/09/19 00:45:16;;;;;;;10.80;5.20;;;;;;;;;;5094467;28;20506;-74
2022/09/19 00:48:22;;;;;;;7.53;4.22;;;;;;;;;;5094746;28;20063;-75
2022/09/19 00:51:37;;;;;;;10.93;5.03;;;;;;;;;;5093576;28;20032;-74
2022/09/19 00:54:43;;;;;;;9.55;5.03;;;;;;;;;;5094434;28;20048;-74
2022/09/19 00:58:08;;;;;;;7.75;4.43;;;;;;;;;;5094298;28;20032;-74
2022/09/19 01:01:14;;;;;;;12.02;4.75;;;;;;;;;;5094279;28;20040;-74
2022/09/19 01:04:20;;;;;;;8.70;4.97;;;;;;;;;;5094230;28;20047;-75
2022/09/19 01:07:32;;;;;;;11.50;5.30;;;;;;;;;;5094116;28;20028;-75
2022/09/19 01:11:00;;;;;;;15.25;4.80;;;;;;;;;;5093181;28;20036;-74
2022/09/19 01:14:05;;;;;;;8.65;4.60;;;;;;;;;;5093911;28;20408;-74
2022/09/19 01:17:19;;;;;;;10.57;4.03;;;;;;;;;;5093939;28;20401;-75
2022/09/19 01:20:32;;;;;;;9.90;4.20;;;;;;;;;;5092973;28;20040;-75
2022/09/19 01:23:45;;;;;;;10.60;4.30;;;;;;;;;;5093141;28;20036;-75
2022/09/19 01:27:06;;;;;;;6.28;3.47;;;;;;;;;;5092615;28;20509;-74
2022/09/19 01:30:12;;;;;;;7.47;3.92;;;;;;;;;;5093041;28;20040;-75
2022/09/19 01:33:20;;;;;;;10.48;3.70;;;;;;;;;;5092560;28;20385;-74
2022/09/19 01:36:32;;;;;;;8.18;3.40;;;;;;;;;;5092813;28;20487;-74
2022/09/19 01:39:39;;;;;;;5.72;3.55;;;;;;;;;;5092835;28;20369;-74
2022/09/19 01:42:58;;;;;;;6.13;2.83;;;;;;;;;;5091585;28;20495;-74
2022/09/19 01:46:09;;;;;;;7.68;3.25;;;;;;;;;;5092086;28;20496;-74
2022/09/19 01:49:17;;;;;;;6.07;2.85;;;;;;;;;;5092263;28;20398;-74
2022/09/19 01:52:21;;;;;;;8.75;2.85;;;;;;;;;;5069633;28;20479;-74
2022/09/19 01:55:31;;;;;;;5.47;2.78;;;;;;;;;;5092515;28;20384;-74
2022/09/19 01:58:48;;;;;;;5.30;2.63;;;;;;;;;;5092672;28;20040;-74
2022/09/19 02:02:00;;;;;;;5.28;2.90;;;;;;;;;;5092429;28;20048;-75
2022/09/19 02:05:13;;;;;;;5.15;3.15;;;;;;;;;;5094050;28;20460;-75
2022/09/19 02:08:19;;;;;;;5.35;2.67;;;;;;;;;;5092038;28;20520;-74
2022/09/19 02:11:24;;;;;;;7.15;3.03;;;;;;;;;;5080135;28;20123;-75
2022/09/19 02:14:31;;;;;;;7.03;3.35;;;;;;;;;;5080405;28;20040;-75
2022/09/19 02:17:50;;;;;;;8.18;3.90;;;;;;;;;;5091699;28;20040;-75
2022/09/19 02:21:00;;;;;;;4.93;3.10;;;;;;;;;;5091381;28;20040;-75
2022/09/19 02:24:09;;;;;;;8.07;3.83;;;;;;;;;;5080123;28;20488;-75
2022/09/19 02:27:26;;;;;;;6.00;3.45;;;;;;;;;;5079824;28;20040;-74
2022/09/19 02:30:31;;;;;;;6.70;3.28;;;;;;;;;;5091623;28;20036;-75
2022/09/19 02:33:36;;;;;;;6.00;3.13;;;;;;;;;;5091431;28;20040;-75
2022/09/19 02:36:53;;;;;;;7.75;3.90;;;;;;;;;;5092354;28;20039;-74
2022/09/19 02:40:01;;;;;;;7.05;3.03;;;;;;;;;;5091563;28;20039;-75
2022/09/19 02:43:22;;;;;;;8.15;3.30;;;;;;;;;;5091124;28;20377;-74
2022/09/19 02:46:38;;;;;;;7.78;3.22;;;;;;;;;;5091299;28;20032;-74
2022/09/19 02:49:50;;;;;;;9.40;3.88;;;;;;;;;;5091162;28;20044;-75
2022/09/19 02:52:56;;;;;;;10.25;3.63;;;;;;;;;;5091240;28;20044;-75
2022/09/19 02:56:03;;;;;;;9.13;3.60;;;;;;;;;;5091658;28;20043;-75
2022/09/19 02:59:10;;;;;;;6.15;3.83;;;;;;;;;;5090823;28;20039;-75
2022/09/19 03:02:26;;;;;;;11.18;3.67;;;;;;;;;;5090942;28;20201;-75
2022/09/19 03:05:32;;;;;;;9.80;4.20;;;;;;;;;;5090961;28;20039;-75
2022/09/19 03:08:37;;;;;;;8.68;4.35;;;;;;;;;;5090998;28;20039;-75
2022/09/19 03:11:49;;;;;;;9.63;4.05;;;;;;;;;;5090900;28;20508;-75
2022/09/19 03:14:58;;;;;;;8.82;3.95;;;;;;;;;;5090819;28;20052;-76
2022/09/19 03:18:09;;;;;;;7.78;4.22;;;;;;;;;;5091136;28;20373;-75
2022/09/19 03:21:19;;;;;;;8.77;4.32;;;;;;;;;;5079155;28;20040;-74
2022/09/19 03:24:26;;;;;;;12.77;5.85;;;;;;;;;;5090763;28;20040;-75
2022/09/19 03:27:30;;;;;;;13.95;5.38;;;;;;;;;;5091280;28;20050;-74
2022/09/19 03:30:34;;;;;;;8.85;3.70;;;;;;;;;;5090448;28;20043;-75
2022/09/19 03:33:39;;;;;;;13.07;4.10;;;;;;;;;;5091320;28;20099;-75
2022/09/19 03:36:45;;;;;;;15.13;4.72;;;;;;;;;;5079585;28;20508;-75
2022/09/19 03:39:56;;;;;;;8.82;4.03;;;;;;;;;;5079958;28;20051;-75
2022/09/19 03:43:00;;;;;;;8.93;4.05;;;;;;;;;;5090607;28;20036;-74
2022/09/19 03:46:05;;;;;;;6.40;3.65;;;;;;;;;;5090371;28;20377;-75
2022/09/19 03:49:10;;;;;;;11.77;4.30;;;;;;;;;;5079788;28;20056;-75
2022/09/19 03:52:15;;;;;;;9.43;4.22;;;;;;;;;;5090660;28;20383;-75
2022/09/19 03:55:20;;;;;;;23.58;5.22;;;;;;;;;;5090149;28;20048;-74
2022/09/19 03:58:26;;;;;;;7.53;3.83;;;;;;;;;;5090559;28;20047;-75
2022/09/19 04:01:30;;;;;;;11.52;4.50;;;;;;;;;;5079105;28;20040;-74
2022/09/19 04:04:35;;;;;;;13.02;4.40;;;;;;;;;;5090455;28;20039;-75
2022/09/19 04:07:40;;;;;;;7.57;4.28;;;;;;;;;;5093986;28;20036;-75
2022/09/19 04:10:45;;;;;;;8.82;4.30;;;;;;;;;;5094065;28;20051;-75
2022/09/19 04:13:50;;;;;;;14.20;4.72;;;;;;;;;;5094147;28;20040;-74
2022/09/19 04:16:55;;;;;;;11.00;4.53;;;;;;;;;;5082493;28;20385;-75
2022/09/19 04:20:01;;;;;;;8.40;3.97;;;;;;;;;;5094220;28;20423;-74
2022/09/19 04:23:20;;;;;;;10.43;4.70;;;;;;;;;;5094221;28;20044;-74
2022/09/19 04:26:43;;;;;;;10.65;4.07;;;;;;;;;;5094974;28;20072;-74
2022/09/19 04:29:48;;;;;;;10.80;4.00;;;;;;;;;;5094242;28;20044;-74
2022/09/19 04:32:52;;;;;;;8.15;4.25;;;;;;;;;;5094425;28;20540;-74
2022/09/19 04:35:59;;;;;;;7.07;4.03;;;;;;;;;;5094211;28;20036;-75
2022/09/19 04:39:06;;;;;;;11.73;4.32;;;;;;;;;;5096882;28;20028;-75
2022/09/19 04:42:15;;;;;;;12.73;4.72;;;;;;;;;;5096578;28;20500;-75
2022/09/19 04:45:20;;;;;;;7.22;3.97;;;;;;;;;;5085312;28;20031;-75
2022/09/19 04:48:37;;;;;;;6.88;3.55;;;;;;;;;;5096346;28;20040;-75
2022/09/19 04:51:41;;;;;;;6.75;3.25;;;;;;;;;;5095966;28;20032;-75
2022/09/19 04:54:47;;;;;;;6.78;3.78;;;;;;;;;;5096775;28;20040;-74
2022/09/19 04:57:54;;;;;;;8.63;3.25;;;;;;;;;;5097709;28;20032;-75
2022/09/19 05:00:59;;;;;;;10.50;3.63;;;;;;;;;;5096430;28;20432;-75
2022/09/19 05:04:07;;;;;;;8.93;3.55;;;;;;;;;;5096903;28;20040;-75
2022/09/19 05:07:13;;;;;;;9.68;3.67;;;;;;;;;;5097040;28;20032;-76
2022/09/19 05:10:18;;;;;;;7.53;3.30;;;;;;;;;;5095598;28;20373;-75
2022/09/19 05:13:24;;;;;;;8.85;3.75;;;;;;;;;;5085049;28;20297;-75
2022/09/19 05:16:29;;;;;;;8.55;4.43;;;;;;;;;;5093332;28;20055;-69
2022/09/19 05:19:37;;;;;;;11.20;4.18;;;;;;;;;;5094006;28;20032;-67
2022/09/19 05:22:43;;;;;;;8.52;4.22;;;;;;;;;;5093583;28;20044;-67
2022/09/19 05:25:47;;;;;;;10.13;4.40;;;;;;;;;;5092709;28;20032;-70
2022/09/19 05:28:52;;;;;;;16.00;5.57;;;;;;;;;;5093231;28;20044;-70
2022/09/19 05:32:02;;;;;;;10.73;4.63;;;;;;;;;;5092857;28;20054;-68
2022/09/19 05:35:20;;;;;;;11.73;5.13;;;;;;;;;;5091414;28;20059;-69
2022/09/19 05:38:38;;;;;;;11.00;4.40;;;;;;;;;;5090125;28;20503;-70
2022/09/19 05:42:08;;;;;;;11.02;5.03;;;;;;;;;;5091071;28;20051;-71
2022/09/19 05:45:13;;;;;;;10.88;4.43;;;;;;;;;;5091189;28;20039;-70
2022/09/19 05:48:18;;;;;;;14.57;3.88;;;;;;;;;;5092357;28;20423;-70
2022/09/19 05:51:22;;;;;;;10.15;3.65;;;;;;;;;;5091190;28;20049;-70
2022/09/19 05:54:26;;;;;;;9.88;3.33;;;;;;;;;;5092275;28;20040;-70
2022/09/19 05:57:56;;;;;;;8.93;3.90;;;;;;;;;;5092094;28;20044;-70
2022/09/19 06:01:03;;;;;;;18.48;5.65;;;;;;;;;;5092294;28;20047;-70
2022/09/19 06:04:08;;;;;;;11.00;4.07;;;;;;;;;;5091179;28;20047;-68
2022/09/19 06:07:16;;;;;;;19.00;4.30;;;;;;;;;;5091371;28;20519;-69
2022/09/19 06:10:23;;;;;;;15.07;4.40;;;;;;;;;;5091072;28;20032;-69
2022/09/19 06:14:13;;;;;;;10.55;3.83;;;;;;;;;;5091823;28;20392;-72
2022/09/19 06:16:52;;;;;;;9.18;3.20;;;;;;;;;;5091428;28;20040;-76
2022/09/19 06:20:14;;;;;;;9.27;3.10;;;;;;;;;;5091760;28;20174;-71
2022/09/19 06:23:24;;;;;;;13.00;3.13;;;;;;;;;;5091060;28;20032;-72
2022/09/19 06:26:29;;;;;;;10.75;2.75;;;;;;;;;;5090789;28;20146;-70
2022/09/19 06:29:33;;;;;;;9.95;3.08;;;;;;;;;;5078936;28;20048;-72
2022/09/19 06:32:55;;;;;;;7.65;2.42;;;;;;;;;;5093435;28;20040;-71
2022/09/19 06:36:11;;;;;;;11.85;2.63;;;;;;;;;;5092417;28;20044;-76
2022/09/19 06:39:15;;;;;;;24.23;3.17;;;;;;;;;;5093752;28;20264;-76
2022/09/19 06:42:29;;;;;;;4.95;2.30;;;;;;;;;;5091799;28;20047;-76
2022/09/19 06:45:52;;;;;;;9.90;2.40;;;;;;;;;;5097246;28;20032;-78
2022/09/19 06:49:36;;;;;;;9.65;2.30;;;;;;;;;;5096227;28;20036;-75
2022/09/19 06:53:03;;;;;;;16.95;3.03;;;;;;;;;;5098101;28;20032;-81
2022/09/19 06:56:09;;;;;;;15.98;2.60;;;;;;;;;;5094351;28;20047;-77
2022/09/19 06:59:14;;;;;;;9.05;1.98;;;;;;;;;;5098287;28;20032;-79
2022/09/19 07:02:21;;;;;;;12.18;2.60;;;;;;;;;;5097260;28;20614;-75
2022/09/19 07:05:27;;;;;;;12.07;1.88;;;;;;;;;;5092861;28;20040;-75
2022/09/19 07:08:48;;;;;;;6.07;1.77;;;;;;;;;;5095641;28;20046;-76
2022/09/19 07:11:56;;;;;;;6.03;1.65;;;;;;;;;;5096599;28;20032;-85
2022/09/19 07:15:03;;;;;;;6.80;1.98;;;;;;;;;;5097689;28;20040;-80
2022/09/19 07:18:12;;;;;;;9.80;1.85;;;;;;;;;;5096655;28;20044;-81
2022/09/19 07:21:20;;;;;;;4.43;1.95;;;;;;;;;;5097608;28;20032;-78
2022/09/19 07:24:24;;;;;;;7.45;1.35;;;;;;;;;;5094620;28;20031;-75
2022/09/19 07:27:35;;;;;;;7.05;1.30;;;;;;;;;;5093973;28;20044;-76
2022/09/19 07:30:43;;;;;;;4.70;1.48;;;;;;;;;;5093154;28;20484;-74
2022/09/19 07:33:48;;;;;;;3.97;1.25;;;;;;;;;;5094540;28;20393;-72
2022/09/19 07:36:53;;;;;;;2.80;1.20;;;;;;;;;;5094742;28;20040;-72
2022/09/19 07:39:57;;;;;;;7.45;1.85;;;;;;;;;;5096103;28;20044;-80
2022/09/19 07:43:19;;;;;;;4.78;1.42;;;;;;;;;;5098812;28;20036;-81
2022/09/19 07:47:26;;;;;;;6.63;2.10;;;;;;;;;;5101382;28;20360;-80
2022/09/19 07:50:30;;;;;;;2.88;1.25;;;;;;;;;;5101706;28;20044;-74
2022/09/19 07:53:36;;;;;;;3.40;1.40;;;;;;;;;;5096349;28;20032;-73
2022/09/19 07:56:40;;;;;;;3.63;1.50;;;;;;;;;;5098128;28;20044;-81
2022/09/19 07:59:46;;;;;;;5.68;1.52;;;;;;;;;;5098390;28;20036;-78
2022/09/19 08:02:58;;;;;;;21.77;1.95;;;;;;;;;;5098099;28;20036;-78
2022/09/19 08:06:03;;;;;;;1.95;1.20;;;;;;;;;;5099537;28;20028;-77
2022/09/19 08:09:10;;;;;;;4.18;1.00;;;;;;;;;;5100112;28;20044;-75
2022/09/19 08:12:30;;;;;;;10.50;1.80;;;;;;;;;;5097539;28;20032;-74
2022/09/19 08:15:50;;;;;;;6.03;1.80;;;;;;;;;;5083955;28;20059;-75
2022/09/19 08:18:54;;;;;;;11.55;2.13;;;;;;;;;;5094644;28;20365;-75
2022/09/19 08:21:59;;;;;;;3.75;1.85;;;;;;;;;;5095626;28;20044;-74
2022/09/19 08:25:08;;;;;;;3.30;1.80;;;;;;;;;;5086994;28;20491;-72
2022/09/19 08:28:13;;;;;;;9.95;1.70;;;;;;;;;;5096485;28;20052;-79
2022/09/19 08:31:18;;;;;;;7.40;1.92;;;;;;;;;;5097777;28;20039;-77
2022/09/19 08:34:24;;;;;;;9.50;2.35;;;;;;;;;;5096061;28;20480;-76
2022/09/19 08:37:30;;;;;;;7.93;2.40;;;;;;;;;;5094682;28;20048;-79
2022/09/19 08:40:43;;;;;;;8.15;2.67;;;;;;;;;;5098383;28;20032;-73
2022/09/19 08:44:08;;;;;;;7.18;1.80;;;;;;;;;;5094156;28;20051;-80
2022/09/19 08:47:19;;;;;;;4.60;1.80;;;;;;;;;;5097863;28;20036;-74
2022/09/19 08:50:28;;;;;;;8.13;2.08;;;;;;;;;;5095532;28;20028;-74
2022/09/19 08:53:37;;;;;;;8.88;2.08;;;;;;;;;;5094152;28;20376;-73
2022/09/19 08:56:44;;;;;;;5.40;1.90;;;;;;;;;;5085038;28;20052;-75
2022/09/19 08:59:50;;;;;;;4.80;1.70;;;;;;;;;;5098187;28;20043;-74
2022/09/19 09:02:58;;;;;;;6.10;1.80;;;;;;;;;;5099959;28;20040;-79
2022/09/19 09:06:41;;;;;;;4.30;1.63;;;;;;;;;;5104753;28;20040;-77
2022/09/19 09:09:56;;;;;;;3.60;1.20;;;;;;;;;;5063188;28;20044;-80
2022/09/19 09:13:17;;;;;;;4.90;1.33;;;;;;;;;;5084043;28;20036;-76
2022/09/19 09:16:26;;;;;;;3.80;1.10;;;;;;;;;;5080578;28;20044;-74
2022/09/19 09:19:37;;;;;;;6.13;1.30;;;;;;;;;;5082644;28;20032;-74
2022/09/19 09:22:48;;;;;;;4.47;1.27;;;;;;;;;;5098491;28;20028;-70
2022/09/19 09:26:28;;;;;;;4.93;1.08;;;;;;;;;;5098115;28;20040;-72
2022/09/19 09:29:38;;;;;;;2.88;1.25;;;;;;;;;;5093161;28;20052;-74
2022/09/19 09:32:56;;;;;;;4.88;1.23;;;;;;;;;;5082409;28;20526;-74
2022/09/19 09:36:02;;;;;;;4.78;1.30;;;;;;;;;;5092954;28;20384;-75
2022/09/19 09:39:50;;;;;;;9.88;1.67;;;;;;;;;;5092294;28;20031;-72
2022/09/19 09:43:04;;;;;;;4.65;1.65;;;;;;;;;;5084750;28;20032;-72
2022/09/19 09:46:13;;;;;;;3.65;1.90;;;;;;;;;;5097089;28;20377;-73
2022/09/19 09:49:18;;;;;;;4.93;1.80;;;;;;;;;;5097341;28;20036;-71
2022/09/19 09:52:30;;;;;;;5.40;1.50;;;;;;;;;;5097003;28;20028;-70
2022/09/19 10:06:30;;;;;;;5.07;1.70;;;;;;;;;;5097067;28;20044;-72
2022/09/19 10:09:37;;;;;;;5.65;1.45;;;;;;;;;;5096475;28;20461;-73
2022/09/19 10:12:47;;;;;;;8.32;1.60;;;;;;;;;;5096760;28;20032;-73
2022/09/19 10:15:55;;;;;;;4.55;1.40;;;;;;;;;;5096579;28;20483;-72
2022/09/19 10:19:04;;;;;;;5.22;1.65;;;;;;;;;;5097171;28;20028;-71
2022/09/19 10:22:15;;;;;;;4.15;1.58;;;;;;;;;;5097721;28;20044;-72
2022/09/19 10:25:26;;;;;;;4.43;1.33;;;;;;;;;;5090980;28;20036;-72
2022/09/19 10:28:32;;;;;;;4.40;1.23;;;;;;;;;;5094653;28;20040;-71
2022/09/19 10:32:09;;;;;;;6.97;1.35;;;;;;;;;;5097416;28;20028;-74
2022/09/19 10:35:36;;;;;;;7.63;1.25;;;;;;;;;;5097099;28;20048;-73
2022/09/19 10:38:56;;;;;;;4.17;1.20;;;;;;;;;;5096364;28;20028;-72
2022/09/19 10:42:02;;;;;;;3.85;1.17;;;;;;;;;;5096506;28;20040;-70
2022/09/19 10:45:25;;;;;;;4.68;1.20;;;;;;;;;;5096752;28;20035;-72
2022/09/19 10:48:31;;;;;;;3.53;0.93;;;;;;;;;;5097506;28;20040;-72
2022/09/19 10:51:43;;;;;;;5.50;1.63;;;;;;;;;;5091043;28;20032;-73
2022/09/19 10:54:52;;;;;;;3.35;1.10;;;;;;;;;;5090658;28;20381;-72
2022/09/19 10:58:06;;;;;;;2.10;1.15;;;;;;;;;;5090873;28;20044;-73
2022/09/19 11:01:23;;;;;;;3.85;1.15;;;;;;;;;;5090622;28;20040;-73
2022/09/19 11:04:28;;;;;;;4.82;1.58;;;;;;;;;;5091461;28;20032;-73
2022/09/19 11:07:44;;;;;;;5.28;1.15;;;;;;;;;;5090767;28;20032;-73
2022/09/19 11:10:49;;;;;;;6.72;3.78;;;;;;;;;;5090671;28;20040;-72
2022/09/19 11:14:31;;;;;;;2.78;1.17;;;;;;;;;;5090578;28;20044;-72
2022/09/19 11:17:53;;;;;;;4.00;1.10;;;;;;;;;;5077533;28;20044;-72
2022/09/19 11:21:34;;;;;;;6.22;1.30;;;;;;;;;;5090535;28;20488;-72
2022/09/19 11:24:46;;;;;;;4.30;1.30;;;;;;;;;;5090794;28;20389;-72
2022/09/19 11:28:02;;;;;;;3.70;1.30;;;;;;;;;;5079034;28;20052;-72
2022/09/19 11:31:26;;;;;;;6.13;1.27;;;;;;;;;;5093885;28;20036;-72
2022/09/19 11:35:03;;;;;;;3.72;1.25;;;;;;;;;;5079053;28;20040;-73
2022/09/19 11:38:23;;;;;;;4.15;1.00;;;;;;;;;;5090167;28;20040;-73
2022/09/19 11:41:40;;;;;;;1.67;1.00;;;;;;;;;;5090623;28;20032;-73
2022/09/19 11:45:04;;;;;;;4.05;1.27;;;;;;;;;;5090451;28;20044;-72
2022/09/19 11:48:08;;;;;;;3.63;1.92;;;;;;;;;;5091010;28;20044;-71
2022/09/19 11:51:31;;;;;;;4.57;1.20;;;;;;;;;;5090902;28;20036;-72
2022/09/19 11:54:46;;;;;;;3.35;1.40;;;;;;;;;;5078990;28;20036;-72
2022/09/19 11:58:06;;;;;;;6.38;1.10;;;;;;;;;;5090409;28;20052;-72
2022/09/19 12:01:30;;;;;;;2.60;1.10;;;;;;;;;;5090497;28;20028;-73
2022/09/19 12:04:42;;;;;;;4.68;0.85;;;;;;;;;;5091380;28;20365;-71
2022/09/19 12:08:14;;;;;;;3.95;0.80;;;;;;;;;;5090636;28;20032;-72
2022/09/19 12:11:20;;;;;;;;;;;;;;;;;;5090956;28;20044;-72
2022/09/19 12:14:41;;;;;;;5.13;1.30;;;;;;;;;;5091777;28;19915;-73
2022/09/19 12:18:07;;;;;;;4.18;1.02;;;;;;;;;;5098105;28;20044;-76
2022/09/19 12:21:16;;;;;;;3.75;0.93;;;;;;;;;;5098909;28;20032;-76
2022/09/19 12:24:52;;;;;;;2.78;1.13;;;;;;;;;;5093652;28;20066;-70
2022/09/19 12:28:10;;;;;;;3.13;1.00;;;;;;;;;;5094178;28;20040;-75
2022/09/19 12:31:17;;;;;;;2.95;1.33;;;;;;;;;;5098399;28;20036;-77
2022/09/19 12:34:23;;;;;;;6.05;1.00;;;;;;;;;;5096482;28;20040;-79
2022/09/19 12:37:43;;;;;;;6.35;0.80;;;;;;;;;;5096095;28;20044;-73
2022/09/19 12:41:07;;;;;;;5.78;2.45;;;;;;;;;;5098023;28;20036;-68
2022/09/19 12:44:38;;;;;;;3.35;1.30;;;;;;;;;;5081960;28;20032;-71
2022/09/19 12:47:46;;;;;;;2.45;0.90;;;;;;;;;;5098772;28;20032;-76
2022/09/19 12:50:56;;;;;;;2.47;0.90;;;;;;;;;;5098857;28;20036;-76
2022/09/19 12:54:09;;;;;;;7.57;1.55;;;;;;;;;;5095691;28;20052;-77
2022/09/19 12:57:17;;;;;;;4.18;0.98;;;;;;;;;;5104229;28;20044;-74
2022/09/19 13:00:24;;;;;;;4.93;1.20;;;;;;;;;;5082449;28;20036;-71
2022/09/19 13:03:37;;;;;;;5.00;1.52;;;;;;;;;;5095988;28;20044;-75
2022/09/19 13:06:43;;;;;;;1.92;0.88;;;;;;;;;;5096226;28;20036;-76
2022/09/19 13:09:58;;;;;;;4.10;1.10;;;;;;;;;;5097497;28;20048;-75
2022/09/19 13:13:22;;;;;;;3.63;0.80;;;;;;;;;;5095574;28;20036;-74
2022/09/19 13:16:34;;;;;;;4.10;1.30;;;;;;;;;;5094417;28;20048;-76
2022/09/19 13:26:32;;;;;;;4.88;1.45;;;;;;;;;;5094024;28;20500;-75
2022/09/19 13:29:42;;;;;;;8.85;1.40;;;;;;;;;;5095152;28;20499;-75
2022/09/19 13:32:57;;;;;;;7.55;1.55;;;;;;;;;;5094981;28;20377;-74
2022/09/19 13:36:09;;;;;;;3.50;1.20;;;;;;;;;;5093807;28;20048;-75
2022/09/19 13:39:50;;;;;;;4.10;1.10;;;;;;;;;;5094749;28;20039;-75
2022/09/19 13:43:00;;;;;;;5.05;1.13;;;;;;;;;;5093093;28;20044;-74
2022/09/19 13:46:06;;;;;;;7.00;2.00;;;;;;;;;;5093048;28;20032;-75
2022/09/19 13:49:41;;;;;;;7.75;1.70;;;;;;;;;;5094195;28;20099;-75
2022/09/19 13:52:48;;;;;;;4.20;1.02;;;;;;;;;;5093439;28;20040;-75
2022/09/19 13:56:00;;;;;;;8.48;2.67;;;;;;;;;;5093527;28;20044;-75
2022/09/19 13:59:12;;;;;;;9.50;2.25;;;;;;;;;;5093894;28;20484;-74
2022/09/19 14:02:15;;;;;;;;;;;;;;;;;;5094266;28;20660;-75
2022/09/19 14:05:20;;;;;;;8.00;1.75;;;;;;;;;;5093265;28;19919;-74
2022/09/19 14:08:34;;;;;;;5.60;1.00;;;;;;;;;;5093355;28;20032;-74
2022/09/19 14:11:38;;;;;;;6.20;1.20;;;;;;;;;;5093673;28;20040;-73
2022/09/19 14:14:49;;;;;;;3.92;0.90;;;;;;;;;;5092695;28;20040;-73
2022/09/19 14:18:12;;;;;;;6.50;2.20;;;;;;;;;;5094353;28;20040;-75
2022/09/19 14:21:36;;;;;;;4.45;1.40;;;;;;;;;;5092837;28;20039;-76
2022/09/19 14:24:43;;;;;;;4.88;1.63;;;;;;;;;;5093639;28;20039;-74
2022/09/19 14:27:57;;;;;;;2.97;1.33;;;;;;;;;;5093362;28;20381;-72
2022/09/19 14:31:03;;;;;;;2.17;0.90;;;;;;;;;;5093826;28;20036;-74
2022/09/19 14:34:26;;;;;;;8.13;1.95;;;;;;;;;;5093073;28;20047;-72
2022/09/19 14:37:46;;;;;;;6.47;1.38;;;;;;;;;;5093408;28;20047;-73
2022/09/19 14:40:57;;;;;;;6.20;1.23;;;;;;;;;;5094051;28;20044;-75
2022/09/19 14:44:15;;;;;;;4.47;1.17;;;;;;;;;;5099187;28;20472;-78
2022/09/19 14:47:28;;;;;;;3.08;0.88;;;;;;;;;;5093694;28;20373;-77
2022/09/19 14:50:37;;;;;;;7.07;1.80;;;;;;;;;;5093372;28;20035;-73
2022/09/19 14:53:42;;;;;;;3.90;1.67;;;;;;;;;;5094662;28;20495;-76
2022/09/19 14:56:53;;;;;;;2.67;0.85;;;;;;;;;;5093524;28;20048;-75
2022/09/19 15:00:13;;;;;;;2.03;0.80;;;;;;;;;;5093847;28;20040;-76
2022/09/19 15:03:19;;;;;;;4.03;1.10;;;;;;;;;;5084020;28;20032;-79
2022/09/19 15:06:56;;;;;;;2.60;0.90;;;;;;;;;;5097201;28;20040;-75
2022/09/19 15:10:01;;;;;;;3.70;1.17;;;;;;;;;;5096863;28;20036;-83
2022/09/19 15:13:19;;;;;;;5.50;1.48;;;;;;;;;;5096040;28;20032;-77
2022/09/19 15:16:25;;;;;;;11.60;1.67;;;;;;;;;;5098339;28;20380;-79
2022/09/19 15:19:32;;;;;;;9.40;1.55;;;;;;;;;;5085832;28;20043;-78
2022/09/19 15:22:40;;;;;;;19.33;10.27;;;;;;;;;;5098880;28;20373;-87
2022/09/19 15:25:47;;;;;;;5.47;1.85;;;;;;;;;;5096062;28;20043;-77
2022/09/19 15:29:36;;;;;;;2.97;1.02;;;;;;;;;;5097655;28;20365;-72
2022/09/19 15:32:42;;;;;;;3.25;1.20;;;;;;;;;;5087871;28;20040;-73
2022/09/19 15:35:47;;;;;;;2.97;1.25;;;;;;;;;;5093635;28;20044;-72
2022/09/19 15:38:54;;;;;;;6.05;1.30;;;;;;;;;;5097237;28;20032;-75
2022/09/19 15:41:59;;;;;;;5.43;1.50;;;;;;;;;;5097432;28;20048;-79
2022/09/19 15:45:23;;;;;;;8.63;2.55;;;;;;;;;;5096433;28;20032;-76
2022/09/19 15:48:30;;;;;;;9.23;2.00;;;;;;;;;;5093112;28;20036;-74
2022/09/19 15:51:36;;;;;;;5.32;1.38;;;;;;;;;;5095746;28;20032;-75
2022/09/19 15:54:51;;;;;;;3.72;1.05;;;;;;;;;;5091204;28;20040;-69
2022/09/19 15:57:56;;;;;;;9.98;1.63;;;;;;;;;;5100102;28;20040;-77
2022/09/19 16:01:10;;;;;;;4.38;1.20;;;;;;;;;;5097124;28;20337;-77
2022/09/19 16:04:19;;;;;;;3.28;1.30;;;;;;;;;;5103097;28;20032;-80
2022/09/19 16:10:51;;;;;;;7.65;4.38;;;;;;;;;;5100770;28;20044;-80
2022/09/19 16:14:04;;;;;;;7.13;1.58;;;;;;;;;;5103792;28;20036;-80
2022/09/19 16:17:22;;;;;;;13.98;2.75;;;;;;;;;;5100317;28;20047;-79
2022/09/19 16:20:32;;;;;;;8.07;1.73;;;;;;;;;;5098404;28;20035;-83
2022/09/19 16:23:48;;;;;;;9.93;2.97;;;;;;;;;;5102529;28;20039;-77
2022/09/19 16:26:54;;;;;;;9.27;1.85;;;;;;;;;;5098622;28;20123;-79
2022/09/19 16:30:01;;;;;;;4.85;1.70;;;;;;;;;;5100074;28;20040;-80
2022/09/19 16:33:13;;;;;;;9.50;1.60;;;;;;;;;;5101324;28;20037;-80
2022/09/19 16:36:17;;;;;;;5.63;2.05;;;;;;;;;;5101264;28;20036;-81
2022/09/19 16:39:42;;;;;;;7.28;1.30;;;;;;;;;;5103233;28;20052;-80
2022/09/19 16:42:46;;;;;;;9.80;1.98;;;;;;;;;;5102844;28;20028;-79
2022/09/19 16:45:51;;;;;;;5.35;1.73;;;;;;;;;;5101068;28;20036;-79
2022/09/19 16:48:55;;;;;;;4.93;1.40;;;;;;;;;;5102045;28;20028;-81
2022/09/19 16:52:00;;;;;;;13.55;1.75;;;;;;;;;;5099287;28;20043;-79
2022/09/19 16:55:06;;;;;;;4.72;1.30;;;;;;;;;;5098068;28;20042;-76
2022/09/19 16:58:12;;;;;;;10.98;2.20;;;;;;;;;;5094180;28;20040;-73
2022/09/19 17:01:16;;;;;;;20.83;2.17;;;;;;;;;;5092746;28;20051;-73
2022/09/19 17:04:21;;;;;;;5.07;1.63;;;;;;;;;;5094646;28;20483;-74
2022/09/19 17:07:26;;;;;;;6.55;3.10;;;;;;;;;;5094223;28;20372;-73
2022/09/19 17:10:30;;;;;;;8.13;2.85;;;;;;;;;;5093085;28;20044;-74
2022/09/19 17:13:35;;;;;;;6.07;2.58;;;;;;;;;;5093482;28;20036;-74
2022/09/19 17:16:40;;;;;;;23.27;7.93;;;;;;;;;;5093698;28;20048;-74
2022/09/19 17:19:45;;;;;;;11.13;5.10;;;;;;;;;;5094137;28;20055;-75
2022/09/19 17:22:49;;;;;;;5.75;2.72;;;;;;;;;;5093671;28;20041;-73
2022/09/19 17:25:55;;;;;;;8.80;2.58;;;;;;;;;;5091889;28;20373;-73
2022/09/19 17:28:59;;;;;;;4.85;1.73;;;;;;;;;;5092850;28;20048;-73
2022/09/19 17:32:04;;;;;;;8.50;2.55;;;;;;;;;;5092727;28;20032;-73
2022/09/19 17:35:13;;;;;;;5.28;2.88;;;;;;;;;;5092782;28;20032;-73
2022/09/19 17:38:17;;;;;;;5.55;2.45;;;;;;;;;;5093178;28;20060;-74
2022/09/19 17:41:22;;;;;;;6.82;2.78;;;;;;;;;;5092972;28;20036;-73
2022/09/19 17:44:26;;;;;;;3.85;2.28;;;;;;;;;;5092866;28;20032;-73
2022/09/19 17:47:31;;;;;;;6.68;1.98;;;;;;;;;;5091735;28;20028;-73
2022/09/19 17:50:35;;;;;;;9.50;2.00;;;;;;;;;;5092315;28;20036;-73
2022/09/19 17:53:40;;;;;;;14.07;6.70;;;;;;;;;;5092728;28;20369;-73
2022/09/19 17:56:45;;;;;;;32.63;14.77;;;;;;;;;;5092569;28;20510;-74
2022/09/19 17:59:49;;;;;;;12.80;5.97;;;;;;;;;;5091550;28;20047;-73
2022/09/19 18:06:17;;;;;;;11.98;5.57;;;;;;;;;;5092692;28;20051;-73
2022/09/19 18:09:21;;;;;;;13.43;4.90;;;;;;;;;;5091681;28;20392;-73
2022/09/19 18:12:25;;;;;;;17.70;5.97;;;;;;;;;;5092552;28;20047;-73
2022/09/19 18:15:30;;;;;;;16.92;4.95;;;;;;;;;;5092351;28;20415;-73
2022/09/19 18:18:36;;;;;;;15.02;5.15;;;;;;;;;;5092565;28;20392;-73
2022/09/19 18:21:40;;;;;;;18.35;4.90;;;;;;;;;;5092095;28;20051;-73
2022/09/19 18:24:45;;;;;;;14.35;5.20;;;;;;;;;;5091287;28;20043;-73
2022/09/19 18:27:49;;;;;;;16.73;4.78;;;;;;;;;;5091883;28;20316;-73
2022/09/19 18:30:55;;;;;;;15.38;4.65;;;;;;;;;;5091113;28;20395;-73
2022/09/19 18:33:59;;;;;;;10.40;4.28;;;;;;;;;;5091958;28;20043;-73
2022/09/19 18:37:03;;;;;;;13.30;4.15;;;;;;;;;;5091791;28;20055;-74
2022/09/19 18:40:09;;;;;;;15.07;5.45;;;;;;;;;;5091745;28;20047;-73
2022/09/19 18:43:13;;;;;;;23.23;5.10;;;;;;;;;;5091720;28;20054;-73
2022/09/19 18:46:19;;;;;;;17.90;6.82;;;;;;;;;;5091373;28;20039;-73
2022/09/19 18:49:24;;;;;;;13.35;7.00;;;;;;;;;;5090737;28;20047;-73
2022/09/19 18:52:29;;;;;;;24.50;8.02;;;;;;;;;;5090560;28;20094;-73
2022/09/19 18:55:37;;;;;;;18.33;8.27;;;;;;;;;;5091465;28;20047;-73
2022/09/19 18:58:41;;;;;;;17.20;7.80;;;;;;;;;;5090058;28;20054;-73
2022/09/19 19:01:46;;;;;;;27.13;8.80;;;;;;;;;;5090792;28;20047;-73
2022/09/19 19:04:50;;;;;;;15.07;7.90;;;;;;;;;;5091177;28;20407;-73
2022/09/19 19:07:54;;;;;;;17.95;7.93;;;;;;;;;;5091430;28;20035;-73
2022/09/19 19:11:05;;;;;;;28.92;7.97;;;;;;;;;;5090828;28;20400;-73
2022/09/19 19:14:09;;;;;;;20.90;8.13;;;;;;;;;;5091256;28;20039;-74
2022/09/19 19:17:14;;;;;;;16.95;8.27;;;;;;;;;;5090980;28;20431;-74
2022/09/19 19:20:19;;;;;;;22.48;7.80;;;;;;;;;;5090969;28;20051;-73
2022/09/19 19:23:23;;;;;;;19.75;8.35;;;;;;;;;;5090953;28;20055;-73
2022/09/19 19:26:29;;;;;;;30.98;9.15;;;;;;;;;;5090934;28;20288;-73
2022/09/19 19:29:33;;;;;;;25.67;8.70;;;;;;;;;;5091033;28;20055;-73